Terminal Aerodrome Forecast
Issued by NWS

Home | Current Version | Previous Version | Text Only | Print | Product List | Glossary On
Versions: 1 2 3 4 5 6 7 8 9 10 11 12 13 14 15 16 17 18
000
FTAK31 PAJN 191422 AAC
TAFAJN
TAF AMD
PAJN 191422Z 1914/2012 30007KT P6SM VCSH FEW009 BKN025 OVC035
      TEMPO 1914/1916 5SM -RASN BKN018
     FM191900 VRB04KT P6SM VCSH SCT025 BKN035 OVC050
     FM200800 VRB04KT P6SM -SHSN SCT025 BKN035 OVC050=

USA.gov is the U.S. government's official web portal to all federal, state and local government web resources and services.